createdAt,value
2018-12-05T00:00:20.818Z,9.17
2018-12-05T00:00:55.506Z,8.40
2018-12-05T00:01:30.433Z,9.57
2018-12-05T00:02:05.014Z,9.23
2018-12-05T00:02:39.632Z,8.50
2018-12-05T00:03:14.687Z,8.83
2018-12-05T00:03:49.313Z,9.70
2018-12-05T00:04:24.030Z,9.57
2018-12-05T00:04:58.730Z,8.83
2018-12-05T00:05:33.296Z,8.80
2018-12-05T00:06:07.944Z,9.10
2018-12-05T00:06:42.536Z,9.40
2018-12-05T00:07:17.123Z,8.77
2018-12-05T00:07:52.273Z,8.77
2018-12-05T00:08:26.946Z,8.73
2018-12-05T00:09:01.497Z,8.73
2018-12-05T00:09:36.094Z,9.10
2018-12-05T00:10:10.369Z,8.10
2018-12-05T00:10:44.941Z,8.30
2018-12-05T00:11:20.041Z,8.50
2018-12-05T00:11:54.698Z,8.97
2018-12-05T00:12:29.266Z,8.63
2018-12-05T00:13:04.459Z,8.00
2018-12-05T00:13:39.021Z,7.83
2018-12-05T00:14:13.988Z,8.40
2018-12-05T00:14:48.620Z,8.63
2018-12-05T00:15:23.241Z,8.87
2018-12-05T00:15:57.904Z,8.57
2018-12-05T00:16:32.453Z,8.63
2018-12-05T00:17:07.520Z,9.13
2018-12-05T00:17:42.098Z,8.63
2018-12-05T00:18:16.679Z,7.87
2018-12-05T00:18:51.374Z,8.83
2018-12-05T00:19:26.010Z,8.37
2018-12-05T00:20:00.607Z,8.33
2018-12-05T00:20:35.227Z,7.90
2018-12-05T00:21:09.850Z,8.33
2018-12-05T00:21:44.565Z,8.50
2018-12-05T00:22:19.650Z,8.30
2018-12-05T00:22:54.244Z,8.30
2018-12-05T00:23:28.875Z,8.47
2018-12-05T00:24:03.440Z,8.13
2018-12-05T00:24:38.076Z,8.40
2018-12-05T00:25:13.203Z,7.70
2018-12-05T00:25:47.810Z,7.63
2018-12-05T00:26:22.528Z,8.43
2018-12-05T00:26:57.144Z,8.60
2018-12-05T00:27:31.725Z,8.43
2018-12-05T00:28:06.320Z,9.83
2018-12-05T00:28:40.964Z,7.87
2018-12-05T00:29:15.518Z,7.73
2018-12-05T00:29:50.107Z,7.70
2018-12-05T00:30:25.338Z,8.23
2018-12-05T00:30:59.897Z,8.17
2018-12-05T00:31:34.452Z,7.97
2018-12-05T00:32:09.029Z,8.20
2018-12-05T00:32:43.594Z,8.73
2018-12-05T00:33:18.186Z,8.43
2018-12-05T00:33:52.929Z,8.07
2018-12-05T00:34:27.557Z,7.77
2018-12-05T00:35:02.536Z,8.00
2018-12-05T00:35:37.173Z,6.73
2018-12-05T00:36:12.140Z,8.33
2018-12-05T00:36:46.701Z,8.27
2018-12-05T00:37:21.387Z,8.47
2018-12-05T00:37:56.068Z,8.47
2018-12-05T00:38:30.650Z,8.27
2018-12-05T00:39:08.802Z,7.37
2018-12-05T00:39:43.378Z,8.30
2018-12-05T00:40:18.515Z,7.50
2018-12-05T00:40:53.575Z,7.60
2018-12-05T00:41:28.172Z,7.63
2018-12-05T00:42:02.816Z,7.67
2018-12-05T00:42:37.394Z,7.70
2018-12-05T00:43:12.072Z,8.30
2018-12-05T00:43:46.641Z,7.83
2018-12-05T00:44:21.261Z,7.83
2018-12-05T00:44:56.274Z,8.03
2018-12-05T00:45:30.971Z,7.33
2018-12-05T00:46:05.585Z,6.80
2018-12-05T00:46:40.318Z,7.20
2018-12-05T00:47:14.946Z,6.47
2018-12-05T00:47:49.598Z,7.33
2018-12-05T00:48:24.246Z,7.40
2018-12-05T00:48:58.933Z,7.67
2018-12-05T00:49:33.558Z,6.70
2018-12-05T00:50:08.769Z,7.30
2018-12-05T00:50:43.421Z,7.10
2018-12-05T00:51:18.099Z,6.83
2018-12-05T00:51:52.862Z,6.67
2018-12-05T00:52:27.645Z,7.73
2018-12-05T00:53:02.372Z,7.20
2018-12-05T00:53:37.089Z,7.27
2018-12-05T00:54:11.900Z,7.23
2018-12-05T00:54:46.598Z,6.83
2018-12-05T00:55:21.854Z,6.47
2018-12-05T00:55:56.597Z,7.27
2018-12-05T00:56:31.266Z,6.93
2018-12-05T00:57:05.993Z,6.97
2018-12-05T00:57:47.010Z,7.07
2018-12-05T00:58:21.825Z,6.23
2018-12-05T00:58:56.492Z,6.87
2018-12-05T00:59:31.213Z,7.03
2018-12-05T01:00:08.031Z,6.63
2018-12-05T01:00:43.156Z,6.80
2018-12-05T01:01:17.837Z,6.83
2018-12-05T01:01:52.733Z,6.43
2018-12-05T01:02:27.699Z,6.57
2018-12-05T01:03:02.354Z,6.83
2018-12-05T01:03:36.962Z,6.53
2018-12-05T01:04:11.705Z,7.13
2018-12-05T01:04:46.313Z,6.37
2018-12-05T01:05:20.986Z,6.90
2018-12-05T01:05:55.840Z,6.73
2018-12-05T01:06:30.922Z,8.23
2018-12-05T01:07:06.458Z,6.60
2018-12-05T01:07:41.122Z,7.23
2018-12-05T01:08:15.749Z,6.90
2018-12-05T01:08:50.421Z,6.97
2018-12-05T01:09:25.087Z,6.83
2018-12-05T01:09:59.763Z,6.80
2018-12-05T01:10:34.417Z,7.03
2018-12-05T01:11:09.041Z,6.57
2018-12-05T01:11:43.711Z,6.37
2018-12-05T01:12:18.339Z,7.67
2018-12-05T01:12:52.974Z,6.87
2018-12-05T01:13:27.593Z,7.17
2018-12-05T01:14:02.277Z,7.10
2018-12-05T01:14:37.012Z,6.60
2018-12-05T01:15:11.643Z,7.73
2018-12-05T01:15:46.366Z,6.57
2018-12-05T01:16:21.583Z,7.70
2018-12-05T01:16:56.314Z,7.13
2018-12-05T01:17:30.997Z,7.33
2018-12-05T01:18:05.997Z,7.10
2018-12-05T01:18:41.055Z,6.60
2018-12-05T01:19:15.774Z,7.20
2018-12-05T01:19:52.573Z,6.80
2018-12-05T01:20:27.186Z,7.63
2018-12-05T01:21:01.838Z,7.07
2018-12-05T01:21:36.586Z,6.90
2018-12-05T01:22:11.219Z,7.53
2018-12-05T01:22:45.858Z,7.37
2018-12-05T01:23:20.557Z,7.10
2018-12-05T01:23:55.193Z,6.57
2018-12-05T01:24:29.806Z,6.67
2018-12-05T01:25:05.927Z,7.10
2018-12-05T01:25:40.553Z,7.20
2018-12-05T01:26:15.275Z,7.70
2018-12-05T01:26:50.234Z,7.23
2018-12-05T01:27:24.947Z,7.17
2018-12-05T01:27:59.555Z,7.63
2018-12-05T01:28:34.239Z,7.53
2018-12-05T01:29:08.917Z,7.57
2018-12-05T01:29:43.546Z,7.03
2018-12-05T01:30:18.156Z,7.10
2018-12-05T01:30:52.789Z,7.90
2018-12-05T01:31:27.415Z,6.90
2018-12-05T01:32:02.038Z,7.40
2018-12-05T01:32:36.648Z,7.60
2018-12-05T01:33:11.278Z,7.57
2018-12-05T01:33:45.958Z,6.97
2018-12-05T01:34:21.260Z,7.77
2018-12-05T01:34:55.926Z,7.17
2018-12-05T01:35:30.548Z,8.13
2018-12-05T01:36:05.232Z,7.50
2018-12-05T01:36:39.861Z,6.80
2018-12-05T01:37:14.477Z,7.10
2018-12-05T01:37:49.134Z,7.87
2018-12-05T01:38:24.133Z,7.20
2018-12-05T01:38:58.807Z,7.53
2018-12-05T01:39:33.438Z,7.50
2018-12-05T01:40:08.560Z,7.77
2018-12-05T01:40:43.186Z,7.67
2018-12-05T01:41:19.019Z,8.30
2018-12-05T01:41:53.765Z,7.57
2018-12-05T01:42:28.425Z,7.50
2018-12-05T01:43:03.045Z,7.60
2018-12-05T01:43:43.094Z,7.33
2018-12-05T01:44:18.166Z,7.03
2018-12-05T01:44:57.123Z,7.77
2018-12-05T01:45:31.734Z,8.80
2018-12-05T01:46:06.350Z,7.37
2018-12-05T01:46:41.491Z,8.20
2018-12-05T01:47:16.225Z,7.50
2018-12-05T01:47:50.899Z,7.20
2018-12-05T01:48:25.626Z,7.90
2018-12-05T01:49:01.249Z,7.37
2018-12-05T01:49:35.844Z,6.80
2018-12-05T01:50:10.995Z,7.50
2018-12-05T01:50:45.647Z,7.03
2018-12-05T01:51:20.310Z,7.37
2018-12-05T01:51:54.961Z,6.97
2018-12-05T01:52:29.574Z,7.73
2018-12-05T01:53:04.214Z,6.87
2018-12-05T01:53:39.442Z,7.47
2018-12-05T01:54:14.157Z,7.43
2018-12-05T01:54:48.870Z,7.27
2018-12-05T01:55:23.751Z,8.40
2018-12-05T01:55:58.394Z,7.43
2018-12-05T01:56:33.513Z,7.50
2018-12-05T01:57:08.250Z,8.03
2018-12-05T01:57:42.846Z,7.70
2018-12-05T01:58:17.460Z,7.10
2018-12-05T01:58:52.274Z,7.47
2018-12-05T01:59:27.363Z,7.20
2018-12-05T02:00:02.030Z,7.77
2018-12-05T02:00:37.126Z,8.30
2018-12-05T02:01:12.224Z,8.57
2018-12-05T02:01:46.938Z,8.17
2018-12-05T02:02:21.760Z,7.77
2018-12-05T02:02:56.434Z,9.23
2018-12-05T02:03:31.417Z,8.23
2018-12-05T02:04:06.469Z,8.03
2018-12-05T02:04:41.105Z,7.97
2018-12-05T02:05:15.863Z,8.47
2018-12-05T02:05:50.547Z,8.30
2018-12-05T02:06:25.329Z,8.67
2018-12-05T02:07:00.109Z,7.67
2018-12-05T02:07:34.804Z,7.57
2018-12-05T02:08:09.473Z,8.60
2018-12-05T02:08:44.178Z,7.87
2018-12-05T02:09:19.054Z,8.13
2018-12-05T02:09:54.279Z,8.57
2018-12-05T02:10:28.924Z,7.97
2018-12-05T02:11:04.075Z,7.87
2018-12-05T02:11:38.796Z,8.23
2018-12-05T02:12:14.058Z,8.10
2018-12-05T02:12:48.705Z,7.83
2018-12-05T02:13:23.563Z,7.90
2018-12-05T02:13:58.205Z,7.27
2018-12-05T02:14:32.991Z,7.17
2018-12-05T02:15:08.118Z,7.47
2018-12-05T02:15:42.757Z,7.53
2018-12-05T02:16:17.590Z,7.50
2018-12-05T02:16:52.389Z,8.40
2018-12-05T02:17:26.996Z,8.03
2018-12-05T02:18:01.642Z,8.27
2018-12-05T02:18:36.227Z,8.03
2018-12-05T02:19:11.350Z,7.90
2018-12-05T02:19:45.946Z,7.30
2018-12-05T02:20:20.657Z,8.43
2018-12-05T02:20:56.626Z,8.20
2018-12-05T02:21:31.228Z,7.53
2018-12-05T02:22:06.220Z,7.83
2018-12-05T02:22:40.813Z,8.60
2018-12-05T02:23:15.513Z,7.90
2018-12-05T02:23:50.196Z,7.90
2018-12-05T02:24:24.843Z,8.00
2018-12-05T02:24:59.465Z,8.37
2018-12-05T02:25:34.085Z,9.00
2018-12-05T02:26:08.677Z,8.60
2018-12-05T02:26:43.281Z,8.47
2018-12-05T02:27:17.915Z,8.03
2018-12-05T02:27:52.772Z,8.80
2018-12-05T02:28:27.366Z,8.40
2018-12-05T02:29:02.081Z,8.37
2018-12-05T02:29:42.163Z,8.83
2018-12-05T02:30:16.785Z,7.83
2018-12-05T02:30:51.509Z,9.33
2018-12-05T02:31:26.936Z,8.07
2018-12-05T02:32:01.603Z,8.33
2018-12-05T02:32:36.207Z,8.50
2018-12-05T02:33:10.817Z,8.17
2018-12-05T02:33:45.554Z,9.23
2018-12-05T02:34:20.400Z,8.93
2018-12-05T02:34:55.785Z,9.77
2018-12-05T02:35:30.386Z,9.63
2018-12-05T02:36:04.983Z,8.23
2018-12-05T02:36:39.582Z,8.70
2018-12-05T02:37:14.225Z,8.37
2018-12-05T02:37:49.137Z,8.57
2018-12-05T02:38:23.814Z,7.67
2018-12-05T02:38:58.450Z,8.50
2018-12-05T02:39:33.140Z,8.77
2018-12-05T02:40:08.742Z,8.93
2018-12-05T02:40:43.344Z,8.47
2018-12-05T02:41:18.433Z,9.23
2018-12-05T02:41:53.284Z,8.13
2018-12-05T02:42:27.948Z,8.07
2018-12-05T02:43:02.512Z,8.23
2018-12-05T02:43:37.125Z,8.27
2018-12-05T02:44:11.722Z,8.63
2018-12-05T02:44:46.385Z,8.53
2018-12-05T02:45:24.239Z,8.03
2018-12-05T02:45:58.920Z,8.53
2018-12-05T02:46:33.623Z,8.93
2018-12-05T02:47:08.257Z,8.13
2018-12-05T02:47:43.307Z,8.70
2018-12-05T02:48:18.188Z,8.53
2018-12-05T02:48:52.908Z,8.90
2018-12-05T02:49:27.952Z,8.37
2018-12-05T02:50:03.128Z,9.07
2018-12-05T02:50:37.763Z,8.83
2018-12-05T02:51:12.373Z,8.67
2018-12-05T02:51:46.988Z,8.90
2018-12-05T02:52:21.634Z,9.20
2018-12-05T02:52:56.294Z,8.60
2018-12-05T02:53:30.934Z,8.67
2018-12-05T02:54:05.631Z,8.33
2018-12-05T02:54:40.472Z,8.97
2018-12-05T02:55:15.390Z,8.97
2018-12-05T02:55:49.986Z,8.80
2018-12-05T02:56:24.624Z,8.63
2018-12-05T02:56:59.248Z,8.37
2018-12-05T02:57:33.992Z,8.60
2018-12-05T02:58:08.584Z,9.23
2018-12-05T02:58:43.186Z,9.63
2018-12-05T02:59:17.800Z,8.80
2018-12-05T02:59:52.499Z,8.40
2018-12-05T03:00:27.701Z,9.23
2018-12-05T03:01:02.352Z,8.43
2018-12-05T03:01:36.982Z,8.77
2018-12-05T03:02:11.950Z,8.83
2018-12-05T03:02:46.568Z,8.90
2018-12-05T03:03:21.546Z,8.63
2018-12-05T03:03:56.283Z,8.47
2018-12-05T03:04:30.905Z,8.90
2018-12-05T03:05:07.997Z,9.33
2018-12-05T03:05:43.078Z,8.90
2018-12-05T03:06:17.854Z,8.57
2018-12-05T03:06:53.697Z,9.23
2018-12-05T03:07:28.422Z,9.30
2018-12-05T03:08:03.856Z,9.60
2018-12-05T03:08:38.481Z,9.03
2018-12-05T03:09:13.076Z,8.90
2018-12-05T03:09:47.693Z,9.03
2018-12-05T03:10:23.384Z,8.93
2018-12-05T03:10:58.156Z,10.30
2018-12-05T03:11:32.782Z,9.43
2018-12-05T03:12:07.359Z,9.03
2018-12-05T03:12:42.036Z,9.17
2018-12-05T03:13:16.649Z,9.17
2018-12-05T03:13:51.517Z,9.03
2018-12-05T03:14:26.176Z,8.43
2018-12-05T03:15:00.882Z,9.37
2018-12-05T03:15:36.419Z,8.87
2018-12-05T03:16:11.422Z,9.87
2018-12-05T03:16:46.093Z,9.47
2018-12-05T03:17:20.728Z,9.70
2018-12-05T03:17:55.474Z,9.53
2018-12-05T03:18:30.209Z,9.80
2018-12-05T03:19:05.724Z,9.60
2018-12-05T03:19:40.496Z,9.37
2018-12-05T03:20:15.093Z,9.27
2018-12-05T03:20:49.697Z,8.83
2018-12-05T03:21:24.376Z,9.83
2018-12-05T03:21:59.044Z,9.70
2018-12-05T03:22:33.712Z,9.30
2018-12-05T03:23:08.364Z,9.23
2018-12-05T03:23:42.964Z,9.50
2018-12-05T03:24:17.586Z,9.70
2018-12-05T03:24:52.667Z,9.50
2018-12-05T03:25:27.457Z,9.87
2018-12-05T03:26:02.653Z,10.13
2018-12-05T03:26:38.001Z,9.67
2018-12-05T03:27:12.709Z,9.70
2018-12-05T03:27:47.382Z,10.40
2018-12-05T03:28:22.214Z,9.37
2018-12-05T03:28:56.911Z,9.83
2018-12-05T03:29:31.569Z,10.17
2018-12-05T03:30:06.902Z,10.03
2018-12-05T03:30:41.527Z,10.27
2018-12-05T03:31:16.182Z,9.30
2018-12-05T03:31:51.076Z,9.37
2018-12-05T03:32:25.823Z,9.57
2018-12-05T03:33:00.474Z,9.70
2018-12-05T03:33:35.118Z,9.77
2018-12-05T03:34:09.748Z,10.70
2018-12-05T03:34:44.455Z,10.17
2018-12-05T03:35:23.264Z,10.00
2018-12-05T03:35:57.913Z,9.70
2018-12-05T03:36:32.591Z,9.37
2018-12-05T03:37:07.460Z,9.53
2018-12-05T03:37:42.145Z,9.50
2018-12-05T03:38:16.781Z,9.30
2018-12-05T03:38:51.887Z,8.70
2018-12-05T03:39:26.538Z,10.63
2018-12-05T03:40:01.156Z,9.63
2018-12-05T03:40:36.904Z,9.27
2018-12-05T03:41:11.516Z,9.87
2018-12-05T03:41:46.113Z,9.80
2018-12-05T03:42:21.329Z,9.53
2018-12-05T03:42:56.045Z,9.50
2018-12-05T03:43:30.842Z,9.37
2018-12-05T03:44:06.148Z,9.67
2018-12-05T03:44:40.774Z,10.20
2018-12-05T03:45:15.855Z,10.07
2018-12-05T03:45:50.468Z,10.00
2018-12-05T03:46:25.117Z,9.53
2018-12-05T03:46:59.726Z,9.87
2018-12-05T03:47:34.445Z,9.80
2018-12-05T03:48:09.078Z,10.43
2018-12-05T03:48:44.164Z,9.23
2018-12-05T03:49:18.821Z,10.07
2018-12-05T03:49:58.701Z,9.73
2018-12-05T03:50:33.319Z,9.07
2018-12-05T03:51:08.104Z,9.13
2018-12-05T03:51:42.893Z,10.00
2018-12-05T03:52:17.819Z,9.97
2018-12-05T03:52:53.004Z,9.50
2018-12-05T03:53:27.738Z,10.03
2018-12-05T03:54:02.384Z,10.10
2018-12-05T03:54:37.042Z,9.50
2018-12-05T03:55:12.190Z,8.83
2018-12-05T03:55:46.807Z,10.53
2018-12-05T03:56:21.828Z,9.57
2018-12-05T03:56:56.534Z,10.33
2018-12-05T03:57:31.406Z,9.80
2018-12-05T03:58:06.075Z,9.60
2018-12-05T03:58:41.163Z,9.73
2018-12-05T03:59:15.862Z,10.13
2018-12-05T03:59:50.719Z,9.30
2018-12-05T04:00:26.171Z,10.57
2018-12-05T04:01:00.769Z,9.90
2018-12-05T04:01:35.397Z,10.00
2018-12-05T04:02:10.005Z,9.27
2018-12-05T04:02:44.689Z,9.23
2018-12-05T04:03:19.344Z,9.57
2018-12-05T04:03:54.024Z,8.57
2018-12-05T04:04:28.763Z,9.37
2018-12-05T04:05:03.836Z,9.90
2018-12-05T04:05:38.569Z,9.07
2018-12-05T04:06:13.188Z,9.40
2018-12-05T04:06:47.820Z,8.83
2018-12-05T04:07:23.269Z,9.60
2018-12-05T04:07:57.955Z,9.30
2018-12-05T04:08:32.573Z,9.17
2018-12-05T04:09:08.470Z,9.70
2018-12-05T04:09:45.033Z,8.93
2018-12-05T04:10:19.776Z,8.93
2018-12-05T04:10:54.545Z,10.10
2018-12-05T04:11:29.221Z,8.63
2018-12-05T04:12:03.838Z,9.10
2018-12-05T04:12:40.740Z,9.40
2018-12-05T04:13:15.125Z,9.23
2018-12-05T04:13:49.782Z,9.23
2018-12-05T04:14:24.519Z,8.93
2018-12-05T04:14:59.122Z,9.73
2018-12-05T04:15:34.042Z,9.40
2018-12-05T04:16:09.474Z,10.07
2018-12-05T04:16:44.129Z,9.33
2018-12-05T04:17:19.325Z,9.70
2018-12-05T04:17:54.366Z,9.90
2018-12-05T04:18:29.139Z,8.97
2018-12-05T04:19:04.187Z,9.57
2018-12-05T04:19:38.816Z,8.80
2018-12-05T04:20:13.420Z,8.27
2018-12-05T04:20:48.072Z,9.60
2018-12-05T04:21:22.818Z,9.83
2018-12-05T04:21:57.456Z,8.83
2018-12-05T04:22:32.051Z,9.70
2018-12-05T04:23:06.728Z,9.30
2018-12-05T04:23:41.843Z,9.30
2018-12-05T04:24:16.470Z,8.93
2018-12-05T04:24:51.091Z,9.70
2018-12-05T04:25:25.895Z,9.70
2018-12-05T04:26:00.510Z,9.60
2018-12-05T04:26:35.132Z,9.70
2018-12-05T04:27:09.758Z,9.60
2018-12-05T04:27:44.582Z,9.13
2018-12-05T04:28:19.302Z,9.60
2018-12-05T04:28:53.950Z,9.87
2018-12-05T04:29:28.692Z,9.70
2018-12-05T04:30:04.412Z,9.60
2018-12-05T04:30:39.374Z,9.03
2018-12-05T04:31:14.044Z,9.03
2018-12-05T04:31:48.706Z,9.07
2018-12-05T04:32:23.528Z,9.87
2018-12-05T04:32:58.661Z,9.23
2018-12-05T04:33:33.296Z,9.30
2018-12-05T04:34:07.967Z,9.40
2018-12-05T04:34:42.574Z,9.87
2018-12-05T04:35:17.239Z,8.70
2018-12-05T04:35:52.377Z,9.27
2018-12-05T04:36:27.109Z,9.97
2018-12-05T04:37:01.714Z,10.40
2018-12-05T04:37:36.330Z,9.03
2018-12-05T04:38:11.020Z,8.93
2018-12-05T04:38:45.735Z,9.37
2018-12-05T04:39:20.321Z,9.23
2018-12-05T04:39:55.075Z,9.47
2018-12-05T04:40:29.715Z,8.90
2018-12-05T04:41:04.462Z,10.27
2018-12-05T04:41:39.112Z,10.03
2018-12-05T04:42:13.808Z,9.90
2018-12-05T04:42:48.524Z,9.50
2018-12-05T04:43:23.363Z,9.03
2018-12-05T04:43:57.994Z,8.73
2018-12-05T04:44:32.915Z,8.57
2018-12-05T04:45:07.926Z,10.47
2018-12-05T04:45:42.635Z,9.70
2018-12-05T04:46:17.336Z,9.63
2018-12-05T04:46:52.416Z,9.23
2018-12-05T04:47:27.213Z,9.60
2018-12-05T04:48:02.163Z,9.63
2018-12-05T04:48:37.016Z,9.47
2018-12-05T04:49:11.752Z,10.03
2018-12-05T04:49:46.391Z,9.13
2018-12-05T04:50:20.991Z,10.10
2018-12-05T04:50:56.091Z,9.43
2018-12-05T04:51:30.738Z,10.23
2018-12-05T04:52:05.890Z,10.07
2018-12-05T04:52:40.509Z,9.80
2018-12-05T04:53:15.135Z,9.67
2018-12-05T04:53:49.777Z,9.23
2018-12-05T04:54:24.481Z,10.20
2018-12-05T04:54:59.151Z,10.13
2018-12-05T04:55:33.754Z,10.67
2018-12-05T04:56:08.577Z,11.23
2018-12-05T04:56:43.213Z,10.60
2018-12-05T04:57:17.881Z,10.50
2018-12-05T04:57:53.062Z,11.13
2018-12-05T04:58:28.053Z,11.33
2018-12-05T04:59:02.678Z,11.80
2018-12-05T04:59:37.309Z,12.50
2018-12-05T05:00:11.943Z,12.90
2018-12-05T05:00:46.549Z,12.57
2018-12-05T05:01:21.297Z,12.27
2018-12-05T05:01:56.216Z,13.67
2018-12-05T05:02:30.964Z,12.77
2018-12-05T05:03:05.690Z,13.77
2018-12-05T05:03:40.334Z,15.40
2018-12-05T05:04:14.948Z,14.13
2018-12-05T05:04:49.854Z,13.87
2018-12-05T05:05:24.554Z,15.00
2018-12-05T05:05:59.662Z,15.10
2018-12-05T05:06:41.430Z,14.63
2018-12-05T05:07:10.958Z,15.70
2018-12-05T05:07:45.716Z,14.13
2018-12-05T05:08:20.297Z,14.93
2018-12-05T05:08:55.081Z,14.70
2018-12-05T05:09:30.070Z,15.83
2018-12-05T05:10:05.616Z,14.87
2018-12-05T05:10:40.219Z,13.97
2018-12-05T05:11:14.818Z,14.17
2018-12-05T05:11:49.519Z,13.80
2018-12-05T05:12:24.542Z,14.60
2018-12-05T05:12:59.244Z,12.93
2018-12-05T05:13:33.849Z,13.10
2018-12-05T05:14:08.580Z,14.60
2018-12-05T05:14:43.208Z,14.13
2018-12-05T05:15:17.889Z,15.10
2018-12-05T05:15:52.877Z,14.33
2018-12-05T05:16:27.637Z,13.97
2018-12-05T05:17:02.291Z,14.07
2018-12-05T05:17:36.921Z,14.53
2018-12-05T05:18:11.533Z,12.70
2018-12-05T05:18:46.177Z,14.10
2018-12-05T05:19:20.822Z,14.57
2018-12-05T05:19:55.579Z,14.10
2018-12-05T05:20:30.444Z,13.63
2018-12-05T05:21:05.192Z,12.97
2018-12-05T05:21:39.798Z,14.00
2018-12-05T05:22:14.407Z,12.07
2018-12-05T05:22:49.715Z,11.83
2018-12-05T05:23:24.501Z,12.60
2018-12-05T05:23:59.216Z,12.23
2018-12-05T05:24:33.909Z,11.43
2018-12-05T05:25:08.545Z,12.60
2018-12-05T05:25:43.196Z,11.77
2018-12-05T05:26:17.939Z,12.17
2018-12-05T05:26:52.701Z,11.70
2018-12-05T05:27:27.493Z,11.73
2018-12-05T05:28:02.110Z,12.03
2018-12-05T05:28:36.816Z,12.50
2018-12-05T05:29:11.542Z,11.63
2018-12-05T05:29:46.165Z,10.70
2018-12-05T05:30:20.826Z,10.83
2018-12-05T05:30:55.725Z,11.57
2018-12-05T05:31:30.366Z,11.03
2018-12-05T05:32:05.424Z,11.70
2018-12-05T05:32:40.113Z,11.20
2018-12-05T05:33:14.983Z,11.40
2018-12-05T05:33:49.671Z,10.70
2018-12-05T05:34:24.371Z,10.57
2018-12-05T05:34:58.971Z,10.37
2018-12-05T05:35:33.595Z,10.90
2018-12-05T05:36:08.218Z,10.60
2018-12-05T05:36:42.878Z,11.03
2018-12-05T05:37:18.068Z,10.47
2018-12-05T05:37:54.126Z,10.10
2018-12-05T05:38:29.247Z,10.80
2018-12-05T05:39:07.660Z,11.10
2018-12-05T05:39:42.910Z,10.60
2018-12-05T05:40:18.352Z,10.23
2018-12-05T05:40:53.346Z,10.47
2018-12-05T05:41:29.123Z,10.30
2018-12-05T05:42:04.929Z,9.67
2018-12-05T05:42:40.838Z,9.83
2018-12-05T05:43:16.358Z,10.37
2018-12-05T05:43:51.902Z,10.77
2018-12-05T05:44:27.765Z,10.50
2018-12-05T05:45:03.250Z,10.67
2018-12-05T05:45:38.942Z,9.63
2018-12-05T05:46:15.247Z,10.73
2018-12-05T05:46:51.017Z,10.00
2018-12-05T05:47:26.760Z,10.13
2018-12-05T05:48:02.467Z,9.57
2018-12-05T05:48:37.993Z,9.63
2018-12-05T05:49:13.501Z,10.03
2018-12-05T05:49:48.987Z,10.33
2018-12-05T05:50:24.742Z,10.93
2018-12-05T05:50:59.652Z,10.70
2018-12-05T05:51:34.486Z,10.00
2018-12-05T05:52:09.092Z,9.47
2018-12-05T05:52:43.730Z,10.60
2018-12-05T05:53:18.313Z,10.57
2018-12-05T05:53:52.923Z,10.77
2018-12-05T05:54:27.606Z,10.43
2018-12-05T05:55:02.302Z,9.80
2018-12-05T05:55:36.900Z,9.97
2018-12-05T05:56:12.419Z,10.00
2018-12-05T05:56:47.842Z,10.07
2018-12-05T05:57:23.924Z,9.67
2018-12-05T05:57:59.795Z,10.13
2018-12-05T05:58:35.528Z,10.60
2018-12-05T05:59:11.007Z,10.50
2018-12-05T05:59:46.543Z,10.30
2018-12-05T06:00:21.667Z,9.93
2018-12-05T06:00:56.779Z,10.87
2018-12-05T06:01:32.682Z,10.20
2018-12-05T06:02:08.361Z,9.60
2018-12-05T06:02:43.282Z,10.93
2018-12-05T06:03:18.736Z,9.83
2018-12-05T06:03:53.869Z,9.77
2018-12-05T06:04:28.975Z,9.57
2018-12-05T06:05:04.460Z,10.10
2018-12-05T06:05:39.589Z,9.83
2018-12-05T06:06:14.214Z,9.77
2018-12-05T06:06:49.777Z,9.47
2018-12-05T06:07:24.929Z,9.17
2018-12-05T06:08:00.215Z,10.33
2018-12-05T06:08:35.565Z,9.33
2018-12-05T06:09:11.490Z,9.03
2018-12-05T06:09:46.942Z,9.77
2018-12-05T06:10:22.420Z,9.27
2018-12-05T06:10:58.083Z,9.60
2018-12-05T06:11:33.755Z,9.67
2018-12-05T06:12:09.386Z,9.57
2018-12-05T06:12:44.902Z,9.47
2018-12-05T06:13:20.443Z,9.87
2018-12-05T06:13:56.484Z,9.50
2018-12-05T06:14:32.321Z,10.20
2018-12-05T06:15:09.127Z,9.83
2018-12-05T06:15:44.668Z,9.57
2018-12-05T06:16:20.169Z,9.50
2018-12-05T06:16:55.780Z,10.73
2018-12-05T06:17:31.883Z,9.60
2018-12-05T06:18:07.519Z,9.73
2018-12-05T06:18:43.157Z,10.40
2018-12-05T06:19:18.778Z,9.57
2018-12-05T06:19:54.453Z,9.57
2018-12-05T06:20:29.789Z,9.80
2018-12-05T06:21:05.128Z,10.03
2018-12-05T06:21:40.666Z,10.77
2018-12-05T06:22:16.536Z,10.80
2018-12-05T06:22:51.866Z,10.50
2018-12-05T06:23:27.305Z,10.60
2018-12-05T06:24:03.362Z,10.27
2018-12-05T06:24:39.030Z,10.77
2018-12-05T06:25:14.281Z,10.40
2018-12-05T06:25:49.866Z,10.57
2018-12-05T06:26:25.405Z,11.17
2018-12-05T06:27:01.003Z,9.83
2018-12-05T06:27:36.610Z,9.90
2018-12-05T06:28:11.979Z,10.13
2018-12-05T06:28:47.420Z,9.90
2018-12-05T06:29:22.067Z,9.83
2018-12-05T06:29:56.731Z,10.30
2018-12-05T06:30:31.397Z,9.93
2018-12-05T06:31:06.126Z,10.47
2018-12-05T06:31:40.719Z,10.10
2018-12-05T06:32:15.324Z,9.77
2018-12-05T06:32:49.955Z,9.57
2018-12-05T06:33:24.555Z,9.87
2018-12-05T06:33:59.310Z,10.77
2018-12-05T06:34:34.137Z,10.80
2018-12-05T06:35:08.773Z,10.33
2018-12-05T06:35:43.382Z,10.43
2018-12-05T06:36:17.983Z,9.63
2018-12-05T06:36:52.596Z,10.73
2018-12-05T06:37:27.195Z,10.67
2018-12-05T06:38:01.889Z,10.90
2018-12-05T06:38:36.635Z,9.67
2018-12-05T06:39:11.330Z,9.93
2018-12-05T06:39:45.955Z,10.90
2018-12-05T06:40:20.667Z,10.93
2018-12-05T06:40:55.428Z,10.87
2018-12-05T06:41:30.109Z,10.90
2018-12-05T06:42:04.813Z,11.00
2018-12-05T06:42:39.516Z,10.13
2018-12-05T06:43:14.150Z,10.40
2018-12-05T06:43:48.752Z,11.37
2018-12-05T06:44:23.585Z,11.53
2018-12-05T06:44:58.322Z,10.67
2018-12-05T06:45:33.011Z,11.00
2018-12-05T06:46:07.652Z,10.97
2018-12-05T06:46:42.329Z,10.73
2018-12-05T06:47:16.977Z,10.33
2018-12-05T06:47:51.741Z,9.80
2018-12-05T06:48:26.426Z,10.10
2018-12-05T06:49:01.158Z,9.93
2018-12-05T06:49:35.837Z,9.97
2018-12-05T06:50:10.650Z,10.10
2018-12-05T06:50:45.269Z,10.40
2018-12-05T06:51:19.858Z,9.97
2018-12-05T06:51:54.614Z,9.90
2018-12-05T06:52:29.301Z,10.20
2018-12-05T06:53:03.914Z,9.80
2018-12-05T06:53:38.535Z,9.53
2018-12-05T06:54:13.177Z,9.40
2018-12-05T06:54:47.785Z,11.17
2018-12-05T06:55:22.502Z,9.73
2018-12-05T06:55:57.371Z,10.53
2018-12-05T06:56:32.018Z,10.17
2018-12-05T06:57:07.124Z,9.70
2018-12-05T06:57:41.728Z,9.87
2018-12-05T06:58:16.350Z,9.57
2018-12-05T06:58:50.983Z,10.13
2018-12-05T06:59:25.624Z,9.97
2018-12-05T07:00:00.766Z,10.37
2018-12-05T07:00:35.416Z,9.60
2018-12-05T07:01:10.006Z,9.50
2018-12-05T07:01:44.582Z,9.20
2018-12-05T07:02:19.181Z,9.50
2018-12-05T07:02:53.880Z,10.10
2018-12-05T07:03:28.556Z,10.40
2018-12-05T07:04:03.246Z,9.03
2018-12-05T07:04:37.965Z,9.97
2018-12-05T07:05:12.617Z,9.57
2018-12-05T07:05:47.220Z,9.70
2018-12-05T07:06:22.333Z,10.07
2018-12-05T07:06:56.994Z,10.40
2018-12-05T07:07:31.618Z,9.13
2018-12-05T07:08:06.350Z,9.00
2018-12-05T07:08:40.957Z,10.10
2018-12-05T07:09:15.568Z,10.13
2018-12-05T07:09:50.217Z,10.03
2018-12-05T07:10:24.959Z,9.80
2018-12-05T07:10:59.617Z,10.00
2018-12-05T07:11:34.269Z,9.90
2018-12-05T07:12:09.162Z,9.47
2018-12-05T07:12:43.875Z,9.70
2018-12-05T07:13:18.495Z,10.33
2018-12-05T07:13:53.286Z,10.00
2018-12-05T07:14:27.958Z,9.73
2018-12-05T07:15:02.692Z,10.23
2018-12-05T07:15:37.305Z,10.40
2018-12-05T07:16:12.378Z,8.73
2018-12-05T07:16:46.999Z,9.60
2018-12-05T07:17:21.672Z,9.23
2018-12-05T07:17:56.317Z,9.50
2018-12-05T07:18:30.967Z,9.07
2018-12-05T07:19:06.181Z,9.87
2018-12-05T07:19:40.781Z,9.20
2018-12-05T07:20:15.427Z,9.33
2018-12-05T07:20:50.007Z,8.90
2018-12-05T07:21:24.916Z,8.63
2018-12-05T07:21:59.622Z,8.60
2018-12-05T07:22:34.290Z,9.17
2018-12-05T07:23:08.998Z,8.97
2018-12-05T07:23:43.636Z,9.77
2018-12-05T07:24:18.225Z,9.50
2018-12-05T07:24:52.914Z,9.47
2018-12-05T07:25:27.686Z,9.47
2018-12-05T07:26:02.320Z,9.47
2018-12-05T07:26:36.941Z,9.90
2018-12-05T07:27:11.547Z,9.07
2018-12-05T07:27:46.168Z,9.93
2018-12-05T07:28:20.860Z,9.37
2018-12-05T07:28:55.561Z,8.23
2018-12-05T07:29:30.311Z,8.63
2018-12-05T07:30:06.200Z,8.73
2018-12-05T07:30:41.254Z,9.13
2018-12-05T07:31:15.992Z,9.23
2018-12-05T07:31:50.671Z,9.33
2018-12-05T07:32:25.306Z,8.83
2018-12-05T07:32:59.928Z,8.93
2018-12-05T07:33:34.542Z,9.13
2018-12-05T07:34:09.162Z,8.80
2018-12-05T07:34:43.837Z,8.80
2018-12-05T07:35:18.488Z,9.33
2018-12-05T07:35:53.366Z,8.27
2018-12-05T07:36:28.115Z,9.20
2018-12-05T07:37:03.039Z,8.90
2018-12-05T07:37:37.654Z,9.10
2018-12-05T07:38:19.233Z,9.03
2018-12-05T07:38:48.993Z,8.57
2018-12-05T07:39:23.753Z,8.17
2018-12-05T07:39:58.478Z,8.70
2018-12-05T07:40:33.095Z,8.60